EDW127 ENGM-EKBI
Flight info
| Callsign | EDW127 |
|---|---|
| Flight time | N/A |
| Altitude | 39000 |
| Route | EKBI |
| Aircraft | A388/J-SADE2E3FGHIJ3J4J5M1RWXY/LB1D1 |
Departure
| Time | N/A |
|---|---|
| Airport | Oslo-Gardermoen International Airport (ENGM) |
Arrival
| Time | 2026-05-07 19:05 |
|---|---|
| Airport | Billund Airport (EKBI) |
| Time | Latitude | Longitude | Altitude | Speed | Heading |
|---|---|---|---|---|---|
| 2026-05-07 18:41 | 57.33462 | 9.90048 | 37903 ft | 474 kts | 214° |
| 2026-05-07 18:41 | 57.30833 | 9.86793 | 37227 ft | 474 kts | 214° |
| 2026-05-07 18:41 | 57.28088 | 9.83394 | 36522 ft | 474 kts | 214° |
| 2026-05-07 18:42 | 57.25347 | 9.80007 | 35816 ft | 474 kts | 214° |
| 2026-05-07 18:42 | 57.22608 | 9.76655 | 35018 ft | 475 kts | 211° |
| 2026-05-07 18:42 | 57.19638 | 9.73985 | 34143 ft | 478 kts | 200° |
| 2026-05-07 18:42 | 57.16433 | 9.72422 | 33453 ft | 476 kts | 191° |
| 2026-05-07 18:43 | 57.13179 | 9.71379 | 32858 ft | 472 kts | 190° |
| 2026-05-07 18:43 | 57.09969 | 9.70340 | 32280 ft | 467 kts | 191° |
| 2026-05-07 18:43 | 57.06796 | 9.69188 | 31700 ft | 463 kts | 192° |
| 2026-05-07 18:43 | 57.03661 | 9.67949 | 31121 ft | 458 kts | 193° |
| 2026-05-07 18:44 | 57.00563 | 9.66671 | 30548 ft | 454 kts | 193° |
| 2026-05-07 18:44 | 56.97498 | 9.65385 | 29960 ft | 450 kts | 193° |
| 2026-05-07 18:44 | 56.94528 | 9.63665 | 29355 ft | 446 kts | 204° |
| 2026-05-07 18:44 | 56.91849 | 9.60900 | 28772 ft | 440 kts | 214° |
| 2026-05-07 18:45 | 56.89305 | 9.57798 | 28192 ft | 437 kts | 214° |
| 2026-05-07 18:45 | 56.87616 | 9.55743 | 27809 ft | 434 kts | 214° |
| 2026-05-07 18:45 | 56.85073 | 9.52652 | 27215 ft | 430 kts | 214° |
| 2026-05-07 18:45 | 56.82592 | 9.49642 | 26636 ft | 426 kts | 214° |
| 2026-05-07 18:46 | 56.80132 | 9.46659 | 26067 ft | 422 kts | 214° |
| 2026-05-07 18:46 | 56.77694 | 9.43707 | 25498 ft | 419 kts | 214° |
| 2026-05-07 18:46 | 56.75275 | 9.40782 | 24903 ft | 415 kts | 214° |
| 2026-05-07 18:46 | 56.73187 | 9.38261 | 24410 ft | 412 kts | 214° |
| 2026-05-07 18:47 | 56.70809 | 9.35391 | 23837 ft | 408 kts | 214° |
| 2026-05-07 18:47 | 56.68478 | 9.32583 | 23261 ft | 405 kts | 214° |
| 2026-05-07 18:47 | 56.66227 | 9.29873 | 22727 ft | 401 kts | 214° |
| 2026-05-07 18:47 | 56.63931 | 9.27114 | 22163 ft | 398 kts | 214° |
| 2026-05-07 18:48 | 56.61627 | 9.24347 | 21599 ft | 394 kts | 214° |
| 2026-05-07 18:48 | 56.59351 | 9.21618 | 21030 ft | 391 kts | 214° |
| 2026-05-07 18:48 | 56.57091 | 9.18910 | 20466 ft | 388 kts | 214° |
| 2026-05-07 18:48 | 56.54850 | 9.16229 | 19912 ft | 384 kts | 214° |
| 2026-05-07 18:49 | 56.52629 | 9.13575 | 19354 ft | 381 kts | 214° |
| 2026-05-07 18:49 | 56.50422 | 9.10939 | 18797 ft | 378 kts | 214° |
| 2026-05-07 18:49 | 56.48232 | 9.08328 | 18236 ft | 375 kts | 214° |
| 2026-05-07 18:49 | 56.46062 | 9.05758 | 17677 ft | 371 kts | 211° |
| 2026-05-07 18:50 | 56.43697 | 9.03962 | 17105 ft | 370 kts | 193° |
| 2026-05-07 18:50 | 56.41145 | 9.03642 | 16541 ft | 368 kts | 174° |
| 2026-05-07 18:50 | 56.38689 | 9.04818 | 15992 ft | 366 kts | 158° |
| 2026-05-07 18:50 | 56.36400 | 9.06789 | 15423 ft | 363 kts | 154° |
| 2026-05-07 18:51 | 56.34179 | 9.08790 | 14850 ft | 360 kts | 155° |
| 2026-05-07 18:51 | 56.31965 | 9.10648 | 14325 ft | 357 kts | 156° |
| 2026-05-07 18:51 | 56.30050 | 9.12141 | 13859 ft | 355 kts | 158° |
| 2026-05-07 18:51 | 56.27776 | 9.13809 | 13320 ft | 352 kts | 159° |
| 2026-05-07 18:52 | 56.25508 | 9.15433 | 13057 ft | 350 kts | 159° |
| 2026-05-07 18:52 | 56.23245 | 9.17050 | 13005 ft | 350 kts | 159° |
| 2026-05-07 18:52 | 56.20981 | 9.18672 | 13000 ft | 351 kts | 159° |
| 2026-05-07 18:52 | 56.18715 | 9.20299 | 12999 ft | 351 kts | 159° |
| 2026-05-07 18:53 | 56.16461 | 9.21991 | 13000 ft | 351 kts | 156° |
| 2026-05-07 18:53 | 56.14287 | 9.23771 | 12963 ft | 350 kts | 156° |
| 2026-05-07 18:53 | 56.12023 | 9.25568 | 12464 ft | 352 kts | 157° |
| 2026-05-07 18:53 | 56.09752 | 9.27271 | 11637 ft | 356 kts | 158° |
| 2026-05-07 18:54 | 56.07429 | 9.28937 | 10771 ft | 361 kts | 159° |
| 2026-05-07 18:54 | 56.05119 | 9.30557 | 10441 ft | 349 kts | 159° |
| 2026-05-07 18:54 | 56.02904 | 9.32101 | 10262 ft | 333 kts | 159° |
| 2026-05-07 18:54 | 56.00795 | 9.33586 | 10119 ft | 318 kts | 159° |
| 2026-05-07 18:55 | 55.98862 | 9.35322 | 9975 ft | 305 kts | 146° |
| 2026-05-07 18:55 | 55.97196 | 9.37534 | 9843 ft | 293 kts | 144° |
| 2026-05-07 18:55 | 55.95572 | 9.39693 | 9503 ft | 289 kts | 144° |
| 2026-05-07 18:55 | 55.93963 | 9.41831 | 9129 ft | 288 kts | 144° |
| 2026-05-07 18:56 | 55.92363 | 9.43955 | 8757 ft | 286 kts | 144° |
| 2026-05-07 18:56 | 55.90772 | 9.46065 | 8370 ft | 284 kts | 144° |
| 2026-05-07 18:56 | 55.89188 | 9.48166 | 7992 ft | 283 kts | 144° |
| 2026-05-07 18:56 | 55.87612 | 9.50255 | 7611 ft | 281 kts | 144° |
| 2026-05-07 18:57 | 55.86068 | 9.52301 | 7245 ft | 280 kts | 144° |
| 2026-05-07 18:57 | 55.84512 | 9.54361 | 6876 ft | 278 kts | 144° |
| 2026-05-07 18:57 | 55.82962 | 9.56412 | 6499 ft | 277 kts | 144° |
| 2026-05-07 18:57 | 55.81420 | 9.58451 | 6128 ft | 275 kts | 144° |
| 2026-05-07 18:58 | 55.79881 | 9.60484 | 5649 ft | 277 kts | 144° |
| 2026-05-07 18:58 | 55.78303 | 9.62566 | 4925 ft | 288 kts | 144° |
| 2026-05-07 18:58 | 55.76666 | 9.64725 | 4170 ft | 297 kts | 144° |
| 2026-05-07 18:58 | 55.74926 | 9.66750 | 3419 ft | 303 kts | 157° |
| 2026-05-07 18:59 | 55.72894 | 9.67462 | 3018 ft | 295 kts | 183° |
| 2026-05-07 18:59 | 55.70980 | 9.66583 | 2883 ft | 278 kts | 209° |
| 2026-05-07 18:59 | 55.69584 | 9.64414 | 2868 ft | 263 kts | 236° |
| 2026-05-07 18:59 | 55.68949 | 9.61468 | 2872 ft | 256 kts | 264° |
| 2026-05-07 19:00 | 55.69181 | 9.58366 | 2872 ft | 257 kts | 292° |
| 2026-05-07 19:00 | 55.70120 | 9.55684 | 2874 ft | 258 kts | 304° |
| 2026-05-07 19:00 | 55.71140 | 9.53064 | 2869 ft | 256 kts | 304° |
| 2026-05-07 19:00 | 55.72128 | 9.50516 | 2868 ft | 243 kts | 304° |
| 2026-05-07 19:01 | 55.73059 | 9.48117 | 2853 ft | 230 kts | 304° |
| 2026-05-07 19:01 | 55.73883 | 9.45997 | 2780 ft | 221 kts | 303° |
| 2026-05-07 19:01 | 55.74581 | 9.43577 | 2703 ft | 211 kts | 285° |
| 2026-05-07 19:01 | 55.74784 | 9.41093 | 2641 ft | 202 kts | 272° |
| 2026-05-07 19:02 | 55.74768 | 9.38652 | 2560 ft | 193 kts | 268° |
| 2026-05-07 19:02 | 55.74696 | 9.36321 | 2313 ft | 184 kts | 266° |
| 2026-05-07 19:02 | 55.74630 | 9.34090 | 2050 ft | 179 kts | 267° |
| 2026-05-07 19:02 | 55.74558 | 9.31887 | 1805 ft | 178 kts | 266° |
| 2026-05-07 19:03 | 55.74491 | 9.29695 | 1570 ft | 178 kts | 267° |
| 2026-05-07 19:03 | 55.74424 | 9.27608 | 1353 ft | 158 kts | 266° |
| 2026-05-07 19:03 | 55.74367 | 9.25760 | 1144 ft | 144 kts | 267° |
| 2026-05-07 19:03 | 55.74311 | 9.24025 | 954 ft | 141 kts | 266° |
| 2026-05-07 19:04 | 55.74246 | 9.22320 | 783 ft | 141 kts | 265° |
| 2026-05-07 19:04 | 55.74194 | 9.20588 | 611 ft | 140 kts | 266° |
| 2026-05-07 19:04 | 55.74133 | 9.18858 | 373 ft | 141 kts | 265° |
| 2026-05-07 19:04 | 55.74088 | 9.17147 | 255 ft | 126 kts | 269° |
| 2026-05-07 19:05 | 55.74067 | 9.16296 | 248 ft | 17 kts | 266° |
| 2026-05-07 19:05 | 55.74067 | 9.16276 | 247 ft | 1 kts | 266° |